createdAt,value
2023-01-27T00:01:07.416Z,4.70
2023-01-27T00:03:35.992Z,4.60
2023-01-27T00:06:04.759Z,4.60
2023-01-27T00:08:32.929Z,4.60
2023-01-27T00:11:29.273Z,4.60
2023-01-27T00:13:57.516Z,4.60
2023-01-27T00:16:25.528Z,4.60
2023-01-27T00:18:53.507Z,4.60
2023-01-27T00:21:46.900Z,4.70
2023-01-27T00:24:32.358Z,4.60
2023-01-27T00:27:01.848Z,4.60
2023-01-27T00:29:30.002Z,4.60
2023-01-27T00:32:15.723Z,4.60
2023-01-27T00:34:43.976Z,4.50
2023-01-27T00:37:12.066Z,4.50
2023-01-27T00:39:40.409Z,4.50
2023-01-27T00:42:12.379Z,4.50
2023-01-27T00:45:00.482Z,4.50
2023-01-27T00:47:28.678Z,4.50
2023-01-27T00:49:57.008Z,4.60
2023-01-27T00:52:25.285Z,4.60
2023-01-27T00:54:53.645Z,4.60
2023-01-27T00:57:23.122Z,4.60
2023-01-27T00:59:51.258Z,4.60
2023-01-27T01:02:19.745Z,4.60
2023-01-27T01:04:48.060Z,4.60
2023-01-27T01:07:16.262Z,4.60
2023-01-27T01:09:45.167Z,4.60
2023-01-27T01:12:13.203Z,4.60
2023-01-27T01:14:42.882Z,4.70
2023-01-27T01:17:10.946Z,4.70
2023-01-27T01:19:39.329Z,4.70
2023-01-27T01:22:07.361Z,4.70
2023-01-27T01:24:35.822Z,4.70
2023-01-27T01:27:04.073Z,4.70
2023-01-27T01:29:32.464Z,4.70
2023-01-27T01:32:02.386Z,4.70
2023-01-27T01:34:32.938Z,4.70
2023-01-27T01:37:00.958Z,4.70
2023-01-27T01:39:29.245Z,4.80
2023-01-27T01:41:57.236Z,4.70
2023-01-27T01:44:28.275Z,4.60
2023-01-27T01:46:56.639Z,4.60
2023-01-27T01:49:30.950Z,4.60
2023-01-27T01:52:01.284Z,4.60
2023-01-27T01:54:33.365Z,4.60
2023-01-27T01:57:06.505Z,4.60
2023-01-27T01:59:40.288Z,4.60
2023-01-27T02:02:11.727Z,4.60
2023-01-27T02:04:46.497Z,4.60
2023-01-27T02:07:21.151Z,4.60
2023-01-27T02:09:52.438Z,4.60
2023-01-27T02:12:20.409Z,4.70
2023-01-27T02:14:48.430Z,4.70
2023-01-27T02:17:16.633Z,4.70
2023-01-27T02:19:58.134Z,4.70
2023-01-27T02:22:37.016Z,4.70
2023-01-27T02:25:11.681Z,4.70
2023-01-27T02:27:41.235Z,4.60
2023-01-27T02:30:10.794Z,4.60
2023-01-27T02:32:40.217Z,4.60
2023-01-27T02:35:12.194Z,4.60
2023-01-27T02:37:41.348Z,4.60
2023-01-27T02:40:11.799Z,4.60
2023-01-27T02:42:41.246Z,4.60
2023-01-27T02:45:10.335Z,4.60
2023-01-27T02:47:38.439Z,4.60
2023-01-27T02:50:07.513Z,4.60
2023-01-27T02:52:35.572Z,4.60
2023-01-27T02:55:03.679Z,4.60
2023-01-27T02:57:31.797Z,4.50
2023-01-27T03:00:20.323Z,4.60
2023-01-27T03:02:48.427Z,4.60
2023-01-27T03:05:16.444Z,4.60
2023-01-27T03:07:44.449Z,4.60
2023-01-27T03:10:12.843Z,4.60
2023-01-27T03:12:40.819Z,4.60
2023-01-27T03:15:28.230Z,4.60
2023-01-27T03:18:11.373Z,4.60
2023-01-27T03:20:39.900Z,4.60
2023-01-27T03:23:08.421Z,4.60
2023-01-27T03:25:37.885Z,4.60
2023-01-27T03:28:06.104Z,4.60
2023-01-27T03:30:43.393Z,4.60
2023-01-27T03:33:21.083Z,4.60
2023-01-27T03:36:16.269Z,4.60
2023-01-27T03:39:05.916Z,4.60
2023-01-27T03:41:51.755Z,4.60
2023-01-27T03:44:37.894Z,4.60
2023-01-27T03:47:05.939Z,4.60
2023-01-27T03:49:35.287Z,4.60
2023-01-27T03:52:03.238Z,4.60
2023-01-27T03:54:31.224Z,4.50
2023-01-27T03:57:05.866Z,4.50
2023-01-27T03:59:35.082Z,4.60
2023-01-27T04:02:20.664Z,4.50
2023-01-27T04:05:07.487Z,4.60
2023-01-27T04:07:36.406Z,4.60
2023-01-27T04:10:04.889Z,4.50
2023-01-27T04:12:32.332Z,4.50
2023-01-27T04:15:00.350Z,4.60
2023-01-27T04:17:30.642Z,4.50
2023-01-27T04:19:59.978Z,4.50
2023-01-27T04:22:28.255Z,4.50
2023-01-27T04:24:56.236Z,4.50
2023-01-27T04:27:24.278Z,4.50
2023-01-27T04:29:52.318Z,4.40
2023-01-27T04:32:20.714Z,4.40
2023-01-27T04:34:48.770Z,4.40
2023-01-27T04:37:18.103Z,4.40
2023-01-27T04:39:47.268Z,4.40
2023-01-27T04:42:15.554Z,4.40
2023-01-27T04:44:43.611Z,4.40
2023-01-27T04:47:11.596Z,4.40
2023-01-27T04:49:39.613Z,4.40
2023-01-27T04:52:07.628Z,4.40
2023-01-27T04:54:37.016Z,4.40
2023-01-27T04:57:05.582Z,4.50
2023-01-27T04:59:33.761Z,4.50
2023-01-27T05:02:01.848Z,4.50
2023-01-27T05:04:30.251Z,4.50
2023-01-27T05:06:58.363Z,4.50
2023-01-27T05:09:26.497Z,4.60
2023-01-27T05:11:56.102Z,4.50
2023-01-27T05:14:24.294Z,4.50
2023-01-27T05:16:52.559Z,4.60
2023-01-27T05:19:20.600Z,4.50
2023-01-27T05:21:48.672Z,4.50
2023-01-27T05:24:16.734Z,4.50
2023-01-27T05:26:44.844Z,4.50
2023-01-27T05:29:14.130Z,4.50
2023-01-27T05:31:42.253Z,4.60
2023-01-27T05:34:10.697Z,4.60
2023-01-27T05:36:38.710Z,4.60
2023-01-27T05:39:08.901Z,4.60
2023-01-27T05:41:37.060Z,4.60
2023-01-27T05:44:05.503Z,4.60
2023-01-27T05:46:34.893Z,4.50
2023-01-27T05:49:05.400Z,4.50
2023-01-27T05:51:35.743Z,4.60
2023-01-27T05:54:04.385Z,4.60
2023-01-27T05:56:33.052Z,4.60
2023-01-27T05:59:01.177Z,4.60
2023-01-27T06:01:31.517Z,4.60
2023-01-27T06:04:01.404Z,4.60
2023-01-27T06:06:31.112Z,4.60
2023-01-27T06:08:59.870Z,4.60
2023-01-27T06:11:29.347Z,4.60
2023-01-27T06:13:57.377Z,4.60
2023-01-27T06:16:25.894Z,4.60
2023-01-27T06:18:53.971Z,4.60
2023-01-27T06:21:23.346Z,4.60
2023-01-27T06:23:53.415Z,4.60
2023-01-27T06:26:21.730Z,4.70
2023-01-27T06:28:49.996Z,4.60
2023-01-27T06:31:20.124Z,4.60
2023-01-27T06:33:48.862Z,4.70
2023-01-27T06:36:18.533Z,4.60
2023-01-27T06:38:48.580Z,4.60
2023-01-27T06:41:16.598Z,4.60
2023-01-27T06:43:44.664Z,4.60
2023-01-27T06:46:12.746Z,4.60
2023-01-27T06:48:40.773Z,4.60
2023-01-27T06:51:08.822Z,4.70
2023-01-27T06:53:37.460Z,4.60
2023-01-27T06:56:07.951Z,4.60
2023-01-27T06:58:35.996Z,4.60
2023-01-27T07:01:06.360Z,4.70
2023-01-27T07:03:37.650Z,4.70
2023-01-27T07:06:06.331Z,4.70
2023-01-27T07:08:34.379Z,4.70
2023-01-27T07:11:05.095Z,4.70
2023-01-27T07:13:34.599Z,4.70
2023-01-27T07:16:02.693Z,4.70
2023-01-27T07:18:31.026Z,4.70
2023-01-27T07:20:59.094Z,4.80
2023-01-27T07:23:27.152Z,4.80
2023-01-27T07:25:55.131Z,4.80
2023-01-27T07:28:23.107Z,4.80
2023-01-27T07:30:52.598Z,4.80
2023-01-27T07:33:20.627Z,4.80
2023-01-27T07:35:50.277Z,4.80
2023-01-27T07:38:18.701Z,4.90
2023-01-27T07:40:46.839Z,4.80
2023-01-27T07:43:15.187Z,4.90
2023-01-27T07:45:43.351Z,4.90
2023-01-27T07:48:13.419Z,4.90
2023-01-27T07:50:42.334Z,4.90
2023-01-27T07:53:14.824Z,4.90
2023-01-27T07:55:43.336Z,4.90
2023-01-27T07:58:11.501Z,4.90
2023-01-27T08:00:39.614Z,4.90
2023-01-27T08:03:21.711Z,4.90
2023-01-27T08:05:59.485Z,4.90
2023-01-27T08:08:27.687Z,5.00
2023-01-27T08:10:59.962Z,4.90
2023-01-27T08:13:28.202Z,5.00
2023-01-27T08:16:03.298Z,4.90
2023-01-27T08:18:31.693Z,5.00
2023-01-27T08:21:03.753Z,5.10
2023-01-27T08:23:33.045Z,5.10
2023-01-27T08:26:02.699Z,5.20
2023-01-27T08:28:33.323Z,5.20
2023-01-27T08:31:08.429Z,5.20
2023-01-27T08:33:37.277Z,5.30
2023-01-27T08:36:09.182Z,5.30
2023-01-27T08:38:37.556Z,5.30
2023-01-27T08:41:06.734Z,5.30
2023-01-27T08:43:35.140Z,5.40
2023-01-27T08:46:03.778Z,5.40
2023-01-27T08:48:32.067Z,5.40
2023-01-27T08:51:01.387Z,5.40
2023-01-27T08:53:31.430Z,5.50
2023-01-27T08:56:03.946Z,5.50
2023-01-27T08:58:33.273Z,5.50
2023-01-27T09:01:02.680Z,5.50
2023-01-27T09:03:31.036Z,5.60
2023-01-27T09:05:59.421Z,5.60
2023-01-27T09:08:28.117Z,5.80
2023-01-27T09:10:58.196Z,5.70
2023-01-27T09:13:28.217Z,5.70
2023-01-27T09:15:56.479Z,5.80
2023-01-27T09:18:24.555Z,5.90
2023-01-27T09:20:53.191Z,5.90
2023-01-27T09:23:21.328Z,5.90
2023-01-27T09:25:49.323Z,5.90
2023-01-27T09:28:18.683Z,5.90
2023-01-27T09:30:50.028Z,5.90
2023-01-27T09:33:18.062Z,5.80
2023-01-27T09:35:48.653Z,5.80
2023-01-27T09:38:21.493Z,5.80
2023-01-27T09:41:07.010Z,5.80
2023-01-27T09:43:55.338Z,5.80
2023-01-27T09:47:00.117Z,5.80
2023-01-27T09:50:01.690Z,5.90
2023-01-27T09:53:02.529Z,5.90
2023-01-27T09:55:36.869Z,5.90
2023-01-27T09:58:15.962Z,6.00
2023-01-27T10:00:57.101Z,6.10
2023-01-27T10:03:48.815Z,6.10
2023-01-27T10:06:38.063Z,6.10
2023-01-27T10:09:39.100Z,6.10
2023-01-27T10:12:18.190Z,6.10
2023-01-27T10:14:53.861Z,6.20
2023-01-27T10:17:39.498Z,6.20
2023-01-27T10:20:20.948Z,6.20
2023-01-27T10:23:01.251Z,6.30
2023-01-27T10:25:42.088Z,6.30
2023-01-27T10:28:14.122Z,6.30
2023-01-27T10:30:50.553Z,6.40
2023-01-27T10:33:21.297Z,6.50
2023-01-27T10:35:54.268Z,6.60
2023-01-27T10:38:36.337Z,6.60
2023-01-27T10:41:16.555Z,6.50
2023-01-27T10:43:56.550Z,6.40
2023-01-27T10:46:36.272Z,6.40
2023-01-27T10:49:12.138Z,6.40
2023-01-27T10:51:46.563Z,6.50
2023-01-27T10:54:20.055Z,6.50
2023-01-27T10:56:52.709Z,6.50
2023-01-27T10:59:27.316Z,6.60
2023-01-27T11:02:02.451Z,6.70
2023-01-27T11:04:39.055Z,6.80
2023-01-27T11:07:08.292Z,6.80
2023-01-27T11:09:40.749Z,6.90
2023-01-27T11:12:13.610Z,7.00
2023-01-27T11:14:46.915Z,7.00
2023-01-27T11:17:20.991Z,6.90
2023-01-27T11:19:57.900Z,6.90
2023-01-27T11:22:33.705Z,7.00
2023-01-27T11:25:12.833Z,6.90
2023-01-27T11:28:00.555Z,7.00
2023-01-27T11:30:37.304Z,7.20
2023-01-27T11:33:16.979Z,7.20
2023-01-27T11:35:46.484Z,7.20
2023-01-27T11:38:17.872Z,7.10
2023-01-27T11:40:49.974Z,7.10
2023-01-27T11:43:21.164Z,7.20
2023-01-27T11:45:51.053Z,7.10
2023-01-27T11:48:23.129Z,7.10
2023-01-27T11:50:53.388Z,7.20
2023-01-27T11:53:25.088Z,7.30
2023-01-27T11:56:00.574Z,7.30
2023-01-27T11:58:33.311Z,7.30
2023-01-27T12:01:06.565Z,7.40
2023-01-27T12:03:48.521Z,7.40
2023-01-27T12:06:25.423Z,7.40
2023-01-27T12:08:53.658Z,7.50
2023-01-27T12:11:25.153Z,7.40
2023-01-27T12:13:55.872Z,7.40
2023-01-27T12:16:28.457Z,7.30
2023-01-27T12:19:00.719Z,7.30
2023-01-27T12:21:41.344Z,7.40
2023-01-27T12:24:27.960Z,7.50
2023-01-27T12:26:57.228Z,7.50
2023-01-27T12:29:29.665Z,7.60
2023-01-27T12:32:01.498Z,7.50
2023-01-27T12:34:33.698Z,7.40
2023-01-27T12:37:06.123Z,7.40
2023-01-27T12:39:44.418Z,7.30
2023-01-27T12:42:36.045Z,7.20
2023-01-27T12:45:29.868Z,7.20
2023-01-27T12:48:03.706Z,7.20
2023-01-27T12:50:33.650Z,7.30
2023-01-27T12:53:12.746Z,7.30
2023-01-27T12:55:44.251Z,7.20
2023-01-27T12:58:34.498Z,7.10
2023-01-27T13:01:06.360Z,7.20
2023-01-27T13:03:42.997Z,7.20
2023-01-27T13:06:16.819Z,7.20
2023-01-27T13:08:48.332Z,7.20
2023-01-27T13:11:19.652Z,7.20
2023-01-27T13:13:51.950Z,7.20
2023-01-27T13:16:27.817Z,7.20
2023-01-27T13:18:57.973Z,7.10
2023-01-27T13:21:28.806Z,7.10
2023-01-27T13:24:00.297Z,7.00
2023-01-27T13:26:31.504Z,7.00
2023-01-27T13:29:05.574Z,7.00
2023-01-27T13:31:43.415Z,7.00
2023-01-27T13:34:25.949Z,7.00
2023-01-27T13:37:01.055Z,7.00
2023-01-27T13:39:48.725Z,6.90
2023-01-27T13:42:22.998Z,6.90
2023-01-27T13:44:57.015Z,6.90
2023-01-27T13:47:27.648Z,6.90
2023-01-27T13:50:00.149Z,6.80
2023-01-27T13:52:28.314Z,6.80
2023-01-27T13:54:58.768Z,6.80
2023-01-27T13:57:53.341Z,6.80
2023-01-27T14:00:27.412Z,6.90
2023-01-27T14:03:37.488Z,6.80
2023-01-27T14:06:25.688Z,6.70
2023-01-27T14:09:11.046Z,6.80
2023-01-27T14:11:48.502Z,6.70
2023-01-27T14:14:28.991Z,6.70
2023-01-27T14:17:15.714Z,6.80
2023-01-27T14:19:58.132Z,6.80
2023-01-27T14:22:33.219Z,6.90
2023-01-27T14:25:09.584Z,6.90
2023-01-27T14:27:44.809Z,6.90
2023-01-27T14:30:20.419Z,7.00
2023-01-27T14:32:55.506Z,6.90
2023-01-27T14:35:33.095Z,6.90
2023-01-27T14:38:10.886Z,6.90
2023-01-27T14:40:47.091Z,6.90
2023-01-27T14:43:29.029Z,6.90
2023-01-27T14:46:05.907Z,6.80
2023-01-27T14:48:45.741Z,6.90
2023-01-27T14:51:25.277Z,6.90
2023-01-27T14:54:06.272Z,6.80
2023-01-27T14:56:45.959Z,6.80
2023-01-27T14:59:28.712Z,6.70
2023-01-27T15:02:03.040Z,6.70
2023-01-27T15:04:38.481Z,6.70
2023-01-27T15:07:17.047Z,6.60
2023-01-27T15:10:09.973Z,6.70
2023-01-27T15:12:57.328Z,6.60
2023-01-27T15:15:48.783Z,6.70
2023-01-27T15:18:28.673Z,6.60
2023-01-27T15:21:12.691Z,6.60
2023-01-27T15:23:58.715Z,6.60
2023-01-27T15:26:28.581Z,6.60
2023-01-27T15:28:58.683Z,6.60
2023-01-27T15:31:30.348Z,6.60
2023-01-27T15:34:16.615Z,6.50
2023-01-27T15:37:02.164Z,6.50
2023-01-27T15:39:40.798Z,6.50
2023-01-27T15:42:12.851Z,6.50
2023-01-27T15:44:43.351Z,6.50
2023-01-27T15:47:21.702Z,6.80
2023-01-27T15:49:52.646Z,7.20
2023-01-27T15:52:29.918Z,7.20
2023-01-27T15:55:01.285Z,6.90
2023-01-27T15:57:32.546Z,6.80
2023-01-27T16:00:06.565Z,6.60
2023-01-27T16:02:45.881Z,6.50
2023-01-27T16:05:20.652Z,6.50
2023-01-27T16:07:51.706Z,6.40
2023-01-27T16:10:22.332Z,6.40
2023-01-27T16:12:52.443Z,6.30
2023-01-27T16:15:39.073Z,6.30
2023-01-27T16:18:27.940Z,6.30
2023-01-27T16:21:02.411Z,6.30
2023-01-27T16:23:45.903Z,6.30
2023-01-27T16:26:30.488Z,6.30
2023-01-27T16:29:15.205Z,6.20
2023-01-27T16:31:44.579Z,6.20
2023-01-27T16:34:23.523Z,6.20
2023-01-27T16:37:01.993Z,6.20
2023-01-27T16:39:37.216Z,6.20
2023-01-27T16:42:06.121Z,6.20
2023-01-27T16:44:40.715Z,6.20
2023-01-27T16:47:20.621Z,6.20
2023-01-27T16:49:53.062Z,6.10
2023-01-27T16:52:35.895Z,6.10
2023-01-27T16:55:21.742Z,6.20
2023-01-27T16:57:51.494Z,6.10
2023-01-27T17:00:21.869Z,6.10
2023-01-27T17:02:51.979Z,6.20
2023-01-27T17:05:22.806Z,6.30
2023-01-27T17:08:04.450Z,6.20
2023-01-27T17:10:35.131Z,6.20
2023-01-27T17:13:03.493Z,6.10
2023-01-27T17:15:37.798Z,6.10
2023-01-27T17:18:10.297Z,6.10
2023-01-27T17:20:43.876Z,6.10
2023-01-27T17:23:23.069Z,6.10
2023-01-27T17:25:51.683Z,6.10
2023-01-27T17:28:25.761Z,6.10
2023-01-27T17:31:06.036Z,6.00
2023-01-27T17:33:36.799Z,6.00
2023-01-27T17:36:11.398Z,6.00
2023-01-27T17:38:46.628Z,6.00
2023-01-27T17:41:35.174Z,6.00
2023-01-27T17:44:10.168Z,6.00
2023-01-27T17:46:38.893Z,6.00
2023-01-27T17:49:13.051Z,6.00
2023-01-27T17:51:45.392Z,6.00
2023-01-27T17:54:22.224Z,6.00
2023-01-27T17:56:53.008Z,6.00
2023-01-27T17:59:23.608Z,6.00
2023-01-27T18:01:55.292Z,5.90
2023-01-27T18:04:24.657Z,6.00
2023-01-27T18:06:54.401Z,6.00
2023-01-27T18:09:28.170Z,6.00
2023-01-27T18:11:58.927Z,6.00
2023-01-27T18:14:28.874Z,6.00
2023-01-27T18:17:07.102Z,5.90
2023-01-27T18:19:35.371Z,5.90
2023-01-27T18:22:13.443Z,5.90
2023-01-27T18:24:48.634Z,5.90
2023-01-27T18:27:27.741Z,5.80
2023-01-27T18:30:02.058Z,5.80
2023-01-27T18:32:38.874Z,5.80
2023-01-27T18:35:25.493Z,5.80
2023-01-27T18:37:58.359Z,5.90
2023-01-27T18:40:30.213Z,5.90
2023-01-27T18:42:58.901Z,5.90
2023-01-27T18:45:28.646Z,5.90
2023-01-27T18:47:56.848Z,5.90
2023-01-27T18:50:26.224Z,5.90
2023-01-27T18:52:55.878Z,5.90
2023-01-27T18:55:25.479Z,5.90
2023-01-27T18:57:55.221Z,5.90
2023-01-27T19:00:28.200Z,5.90
2023-01-27T19:03:01.218Z,5.80
2023-01-27T19:05:32.738Z,5.80
2023-01-27T19:08:02.413Z,5.80
2023-01-27T19:10:32.584Z,5.80
2023-01-27T19:13:03.903Z,5.80
2023-01-27T19:15:34.913Z,5.80
2023-01-27T19:18:10.258Z,5.80
2023-01-27T19:20:38.278Z,5.80
2023-01-27T19:23:13.205Z,5.80
2023-01-27T19:25:41.715Z,5.80
2023-01-27T19:28:17.861Z,5.80
2023-01-27T19:30:46.669Z,5.80
2023-01-27T19:33:19.156Z,5.80
2023-01-27T19:35:49.897Z,5.80
2023-01-27T19:38:19.291Z,5.80
2023-01-27T19:40:47.346Z,5.80
2023-01-27T19:43:16.113Z,5.80
2023-01-27T19:45:46.799Z,5.80
2023-01-27T19:48:16.783Z,5.70
2023-01-27T19:50:45.507Z,5.80
2023-01-27T19:53:14.651Z,5.80
2023-01-27T19:55:44.306Z,5.80
2023-01-27T19:58:21.079Z,5.80
2023-01-27T20:00:49.194Z,5.80
2023-01-27T20:03:17.611Z,5.70
2023-01-27T20:05:46.177Z,5.70
2023-01-27T20:08:16.670Z,5.80
2023-01-27T20:10:46.618Z,5.70
2023-01-27T20:13:16.569Z,5.80
2023-01-27T20:15:45.195Z,5.70
2023-01-27T20:18:16.011Z,5.70
2023-01-27T20:20:45.122Z,5.70
2023-01-27T20:23:14.551Z,5.70
2023-01-27T20:25:42.540Z,5.70
2023-01-27T20:28:13.271Z,5.60
2023-01-27T20:30:42.750Z,5.60
2023-01-27T20:33:11.716Z,5.60
2023-01-27T20:35:39.689Z,5.60
2023-01-27T20:38:07.683Z,5.60
2023-01-27T20:40:35.773Z,5.60
2023-01-27T20:43:03.742Z,5.50
2023-01-27T20:45:33.615Z,5.50
2023-01-27T20:48:01.760Z,5.50
2023-01-27T20:50:29.762Z,5.50
2023-01-27T20:52:57.774Z,5.60
2023-01-27T20:55:25.787Z,5.60
2023-01-27T20:57:53.811Z,5.60
2023-01-27T21:00:23.255Z,5.60
2023-01-27T21:02:52.589Z,5.60
2023-01-27T21:05:20.617Z,5.70
2023-01-27T21:07:48.643Z,5.60
2023-01-27T21:10:19.969Z,5.60
2023-01-27T21:12:48.000Z,5.70
2023-01-27T21:15:16.266Z,5.70
2023-01-27T21:17:44.588Z,5.70
2023-01-27T21:20:14.338Z,5.70
2023-01-27T21:22:42.377Z,5.70
2023-01-27T21:25:10.628Z,5.70
2023-01-27T21:27:38.667Z,5.70
2023-01-27T21:30:07.850Z,5.70
2023-01-27T21:32:36.491Z,5.70
2023-01-27T21:35:04.972Z,5.70
2023-01-27T21:37:36.084Z,5.70
2023-01-27T21:40:04.231Z,5.60
2023-01-27T21:42:49.483Z,5.60
2023-01-27T21:45:17.792Z,5.70
2023-01-27T21:47:45.971Z,5.60
2023-01-27T21:50:15.352Z,5.60
2023-01-27T21:52:46.825Z,5.60
2023-01-27T21:55:16.784Z,5.60
2023-01-27T21:57:48.277Z,5.50
2023-01-27T22:00:18.204Z,5.50
2023-01-27T22:02:46.205Z,5.50
2023-01-27T22:05:14.622Z,5.50
2023-01-27T22:07:44.328Z,5.60
2023-01-27T22:10:17.317Z,5.70
2023-01-27T22:12:45.680Z,5.60
2023-01-27T22:15:15.880Z,5.60
2023-01-27T22:17:44.818Z,5.50
2023-01-27T22:20:14.050Z,5.50
2023-01-27T22:22:42.332Z,5.50
2023-01-27T22:25:14.312Z,5.40
2023-01-27T22:27:43.202Z,5.40
2023-01-27T22:30:14.732Z,5.40
2023-01-27T22:32:42.941Z,5.40
2023-01-27T22:35:11.615Z,5.50
2023-01-27T22:37:39.961Z,5.40
2023-01-27T22:40:09.302Z,5.30
2023-01-27T22:42:39.903Z,5.30
2023-01-27T22:45:09.673Z,5.30
2023-01-27T22:47:37.733Z,5.30
2023-01-27T22:50:06.363Z,5.40
2023-01-27T22:52:36.130Z,5.40
2023-01-27T22:55:04.373Z,5.40
2023-01-27T22:57:32.447Z,5.40
2023-01-27T23:00:01.842Z,5.30
2023-01-27T23:02:30.107Z,5.40
2023-01-27T23:04:58.498Z,5.50
2023-01-27T23:07:26.959Z,5.40
2023-01-27T23:09:54.933Z,5.30
2023-01-27T23:12:22.909Z,5.30
2023-01-27T23:14:50.967Z,5.20
2023-01-27T23:17:20.343Z,5.20
2023-01-27T23:19:48.336Z,5.20
2023-01-27T23:22:16.301Z,5.20
2023-01-27T23:24:44.332Z,5.20
2023-01-27T23:27:12.472Z,5.10
2023-01-27T23:29:40.457Z,5.10
2023-01-27T23:32:08.504Z,5.10
2023-01-27T23:34:37.842Z,5.10
2023-01-27T23:37:05.811Z,5.10
2023-01-27T23:39:33.788Z,5.00
2023-01-27T23:42:01.774Z,5.00
2023-01-27T23:44:29.752Z,5.00
2023-01-27T23:46:57.762Z,5.00
2023-01-27T23:49:25.772Z,4.90
2023-01-27T23:51:55.143Z,4.90
2023-01-27T23:54:23.186Z,4.90
2023-01-27T23:56:51.564Z,4.80
2023-01-27T23:59:19.635Z,4.80
